Terminal Aerodrome Forecast
Issued by NWS

Home | Current Version | Previous Version | Text Only | Print | Product List | Glossary On
Versions: 1 2 3 4 5 6 7 8 9 10 11 12 13 14 15 16 17 18 19 20 21 22
778
FTUS43 KLSX 010239 AAA
TAFCPS
TAF AMD
KCPS 010239Z 0103/0124 31008KT P6SM VCSH SCT020 BKN035
      TEMPO 0103/0105 3SM SHRA BR OVC020
     FM010500 33005KT P6SM BKN015
     FM010700 32005KT P6SM BKN008
     FM011500 30006KT P6SM BKN015
     FM012100 30006KT P6SM BKN030=

USA.gov is the U.S. government's official web portal to all federal, state and local government web resources and services.